Time;durP1;ratioP1;P1;durP2;ratioP2;P2;SDS_P1;SDS_P2;PMS_P1;PMS_P2;Temp;Humidity;BMP_temperature;BMP_pressure;BME280_temperature;BME280_humidity;BME280_pressure;Samples;Min_cycle;Max_cycle;Signal;HPM_P1;HPM_P2
2022/11/08 00:02:21;;;;;;;29.70;18.55;;;;;;;9.11;99.42;97436.69;5024903;28;20140;-62
2022/11/08 00:04:48;;;;;;;33.55;18.95;;;;;;;9.54;99.59;97486.50;5024445;28;20049;-57
2022/11/08 00:15:37;;;;;;;41.25;20.30;;;;;;;9.13;98.80;97412.28;5024907;28;20495;-56
2022/11/08 00:18:05;;;;;;;40.33;20.13;;;;;;;9.64;98.63;97472.13;5023895;28;20060;-63
2022/11/08 00:20:32;;;;;;;34.92;18.75;;;;;;;9.71;98.08;97472.34;5024494;28;20145;-58
2022/11/08 00:22:59;;;;;;;38.63;19.67;;;;;;;9.72;98.25;97467.63;5024416;28;20217;-61
2022/11/08 00:25:26;;;;;;;34.65;18.55;;;;;;;9.75;98.64;97467.72;5024694;28;20436;-62
2022/11/08 00:27:53;;;;;;;36.95;19.17;;;;;;;9.29;98.66;97393.78;5024457;28;20087;-57
2022/11/08 00:30:19;;;;;;;33.60;19.10;;;;;;;9.76;98.14;97474.84;5024172;28;20403;-58
2022/11/08 00:32:46;;;;;;;36.88;19.23;;;;;;;9.80;98.10;97464.69;5023389;28;20485;-57
2022/11/08 00:35:12;;;;;;;34.40;19.17;;;;;;;9.76;98.85;97462.97;5024025;28;20065;-59
2022/11/08 00:37:39;;;;;;;34.00;20.02;;;;;;;9.66;98.64;97442.16;5024560;28;20480;-57
2022/11/08 00:40:06;;;;;;;38.35;18.42;;;;;;;9.29;98.49;97382.72;5024334;28;20721;-63
2022/11/08 00:42:32;;;;;;;35.08;18.77;;;;;;;9.79;98.20;97449.25;5024237;28;20080;-62
2022/11/08 00:44:59;;;;;;;37.67;17.73;;;;;;;9.84;97.42;97453.72;5024500;28;20518;-58
2022/11/08 00:47:26;;;;;;;31.48;17.95;;;;;;;9.53;97.66;97432.31;5024352;28;20128;-62
2022/11/08 00:49:52;;;;;;;36.70;18.33;;;;;;;8.53;97.40;97271.66;5023691;28;20096;-57
2022/11/08 00:52:19;;;;;;;33.30;18.42;;;;;;;9.37;97.43;97394.75;5024331;28;20553;-57
2022/11/08 00:54:45;;;;;;;33.47;18.52;;;;;;;9.65;97.13;97435.03;5024493;28;20489;-62
2022/11/08 00:57:12;;;;;;;36.88;18.05;;;;;;;9.42;97.91;97414.66;5022749;28;20140;-56
2022/11/08 00:59:38;;;;;;;33.45;18.42;;;;;;;9.53;98.88;97437.84;5022687;28;20148;-62
2022/11/08 01:02:05;;;;;;;40.80;18.50;;;;;;;9.58;98.17;97429.31;5024375;28;20134;-57
2022/11/08 01:04:32;;;;;;;37.72;19.42;;;;;;;9.60;98.00;97432.53;5024053;28;20160;-57
2022/11/08 01:06:58;;;;;;;34.38;19.00;;;;;;;9.57;98.03;97430.47;5024210;28;20135;-57
2022/11/08 01:09:25;;;;;;;35.45;19.08;;;;;;;9.52;98.77;97435.44;5024121;28;20140;-57
2022/11/08 01:11:52;;;;;;;31.50;18.00;;;;;;;9.45;99.27;97430.56;5023840;28;20585;-56
2022/11/08 01:14:18;;;;;;;33.80;18.27;;;;;;;9.16;99.68;97383.94;5023800;28;20092;-58
2022/11/08 01:16:45;;;;;;;39.85;19.92;;;;;;;9.40;100.00;97433.56;5023736;28;20117;-57
2022/11/08 01:19:11;;;;;;;34.72;19.00;;;;;;;9.48;100.00;97429.03;5023990;28;20494;-62
2022/11/08 01:21:38;;;;;;;35.70;18.60;;;;;;;9.49;100.00;97436.97;5024027;28;20132;-62
2022/11/08 01:24:05;;;;;;;37.05;17.50;;;;;;;9.39;99.73;97431.94;5023905;28;20152;-62
2022/11/08 01:26:32;;;;;;;31.33;17.73;;;;;;;9.47;99.02;97433.75;5023488;28;20136;-62
2022/11/08 01:28:59;;;;;;;34.13;17.35;;;;;;;9.42;99.13;97430.44;5025299;28;20085;-56
2022/11/08 01:31:29;;;;;;;30.05;17.25;;;;;;;9.03;99.41;97390.66;5027474;28;20091;-57
2022/11/08 01:33:57;;;;;;;30.70;17.00;;;;;;;9.24;99.77;97418.91;5026327;28;20107;-62
2022/11/08 01:36:26;;;;;;;32.95;17.48;;;;;;;9.19;100.00;97438.50;5027632;28;20076;-57
2022/11/08 01:38:54;;;;;;;33.17;17.75;;;;;;;9.16;100.00;97411.56;5027266;28;20507;-57
2022/11/08 01:41:22;;;;;;;33.55;17.88;;;;;;;9.22;98.84;97393.56;5027629;28;20049;-58
2022/11/08 01:43:57;;;;;;;53.42;22.00;;;;;;;9.29;97.22;97418.66;5026142;28;20088;-62
2022/11/08 01:46:38;;;;;;;52.80;23.92;;;;;;;8.67;99.56;97404.59;5027386;28;20053;-62
2022/11/08 01:49:17;;;;;;;48.10;21.80;;;;;;;8.88;98.89;97432.84;5026849;28;20053;-57
2022/11/08 01:51:53;;;;;;;45.40;21.85;;;;;;;8.88;99.04;97428.09;5027224;28;20571;-57
2022/11/08 01:54:39;;;;;;;34.17;18.35;;;;;;;8.91;99.53;97427.44;5026097;28;20053;-62
2022/11/08 01:57:11;;;;;;;39.42;19.55;;;;;;;8.77;99.73;97387.53;5027257;28;20195;-58
2022/11/08 01:59:40;;;;;;;40.00;20.30;;;;;;;9.01;99.66;97431.63;5025566;28;20149;-63
2022/11/08 02:02:08;;;;;;;36.13;17.95;;;;;;;9.00;100.00;97419.00;5027253;28;20136;-63
2022/11/08 02:04:37;;;;;;;35.58;17.30;;;;;;;8.99;100.00;97420.16;5026850;28;20059;-60
2022/11/08 02:07:06;;;;;;;34.60;17.52;;;;;;;9.08;100.00;97413.31;5027240;28;20136;-63
2022/11/08 02:09:36;;;;;;;35.65;18.20;;;;;;;8.98;99.62;97400.00;5026784;28;20629;-62
2022/11/08 02:12:04;;;;;;;29.48;15.50;;;;;;;9.14;99.46;97419.38;5026941;28;20050;-56
2022/11/08 02:14:30;;;;;;;34.83;17.38;;;;;;;9.10;99.31;97410.22;5027003;28;20096;-54
2022/11/08 02:16:57;;;;;;;32.28;17.67;;;;;;;8.50;100.00;97333.09;5026785;28;20137;-56
2022/11/08 02:19:46;;;;;;;34.53;18.48;;;;;;;9.13;100.00;97412.28;5026984;28;20159;-60
2022/11/08 02:22:30;;;;;;;33.65;17.60;;;;;;;9.20;99.70;97412.44;5026421;28;20057;-55
2022/11/08 02:24:57;;;;;;;31.42;16.50;;;;;;;9.24;98.62;97407.84;5026526;28;20095;-60
2022/11/08 02:27:24;;;;;;;34.20;17.35;;;;;;;8.82;99.28;97351.41;5026741;28;20111;-56
2022/11/08 02:29:53;;;;;;;28.77;16.23;;;;;;;9.35;97.89;97413.66;5026281;28;20097;-56
2022/11/08 02:32:20;;;;;;;28.83;15.98;;;;;;;9.29;98.46;97413.13;5026792;28;20081;-55
2022/11/08 02:34:54;;;;;;;26.00;15.68;;;;;;;9.30;97.87;97406.44;5026732;28;20137;-60
2022/11/08 02:37:22;;;;;;;30.63;15.88;;;;;;;8.61;98.60;97307.41;5026594;28;20085;-55
2022/11/08 02:39:49;;;;;;;31.30;16.10;;;;;;;8.35;99.04;97271.13;5025754;28;20142;-61
2022/11/08 02:42:17;;;;;;;26.70;16.02;;;;;;;9.08;99.52;97407.81;5026427;28;20563;-55
2022/11/08 02:44:45;;;;;;;30.80;16.75;;;;;;;9.14;98.32;97413.88;5026325;28;20045;-61
2022/11/08 02:47:12;;;;;;;29.70;17.55;;;;;;;8.92;98.23;97375.72;5026195;28;20045;-61
2022/11/08 02:49:39;;;;;;;31.88;17.40;;;;;;;9.07;98.50;97414.47;5026055;28;20061;-59
2022/11/08 02:52:06;;;;;;;29.67;17.02;;;;;;;9.05;98.70;97393.88;5026102;28;20566;-55
2022/11/08 02:54:33;;;;;;;31.90;16.95;;;;;;;9.18;98.66;97409.25;5026028;28;20076;-61
2022/11/08 02:57:00;;;;;;;30.30;18.05;;;;;;;9.21;98.17;97405.78;5024546;28;20135;-61
2022/11/08 02:59:26;;;;;;;33.38;17.70;;;;;;;9.23;98.69;97399.91;5025755;28;20140;-61
2022/11/08 03:01:53;;;;;;;37.55;17.40;;;;;;;9.27;97.99;97407.13;5026314;28;20095;-61
2022/11/08 03:04:20;;;;;;;34.08;18.20;;;;;;;8.61;98.75;97292.78;5026296;28;20470;-60
2022/11/08 03:06:46;;;;;;;31.05;17.80;;;;;;;9.33;97.74;97400.19;5025790;28;20041;-56
2022/11/08 03:09:13;;;;;;;37.50;20.45;;;;;;;9.18;97.79;97362.28;5024158;28;20103;-55
2022/11/08 03:11:40;;;;;;;41.88;20.67;;;;;;;9.30;97.16;97389.84;5025709;28;20133;-58
2022/11/08 03:14:06;;;;;;;37.85;19.52;;;;;;;9.35;97.78;97402.59;5025618;28;20124;-61
2022/11/08 03:16:33;;;;;;;36.22;18.88;;;;;;;9.25;96.65;97365.22;5025392;28;20513;-56
2022/11/08 03:18:59;;;;;;;35.70;19.15;;;;;;;9.46;96.80;97403.69;5025724;28;20132;-61
2022/11/08 03:21:26;;;;;;;36.78;19.80;;;;;;;9.41;96.78;97407.50;5025803;28;20481;-61
2022/11/08 03:23:53;;;;;;;34.55;18.38;;;;;;;9.17;97.12;97368.94;5025578;28;20093;-61
2022/11/08 03:26:19;;;;;;;33.92;18.92;;;;;;;9.46;96.99;97410.03;5025731;28;20053;-59
2022/11/08 03:28:46;;;;;;;42.88;21.40;;;;;;;9.36;97.57;97404.22;5025880;28;20132;-55
2022/11/08 03:31:12;;;;;;;37.92;20.38;;;;;;;9.10;97.32;97335.59;5025472;28;20411;-55
2022/11/08 03:33:39;;;;;;;32.38;17.10;;;;;;;8.79;97.75;97413.66;5025957;28;20111;-56
2022/11/08 03:36:06;;;;;;;36.38;18.92;;;;;;;8.78;100.00;97416.75;5025765;28;20081;-60
2022/11/08 03:38:32;;;;;;;37.95;20.65;;;;;;;8.97;100.00;97408.63;5025101;28;20085;-56
2022/11/08 03:40:59;;;;;;;35.67;18.90;;;;;;;8.81;99.71;97355.28;5025048;28;20045;-55
2022/11/08 03:43:26;;;;;;;34.08;17.95;;;;;;;9.04;100.00;97387.53;5025245;28;20053;-58
2022/11/08 03:45:52;;;;;;;32.10;17.73;;;;;;;9.30;99.57;97406.44;5024295;28;20118;-55
2022/11/08 03:48:19;;;;;;;33.85;17.38;;;;;;;9.40;97.94;97405.09;5023746;28;20149;-57
2022/11/08 03:50:46;;;;;;;33.17;16.90;;;;;;;8.67;96.95;97283.09;5025025;28;20049;-60
2022/11/08 03:53:13;;;;;;;32.63;17.45;;;;;;;9.33;95.84;97411.25;5024322;28;20104;-60
2022/11/08 03:55:40;;;;;;;39.70;17.98;;;;;;;9.50;96.00;97399.06;5025068;28;20092;-57
2022/11/08 03:58:06;;;;;;;27.60;16.95;;;;;;;9.43;97.01;97405.22;5023940;28;20093;-55
2022/11/08 04:00:33;;;;;;;32.40;19.15;;;;;;;9.43;98.14;97410.75;5025050;28;20099;-55
2022/11/08 04:03:02;;;;;;;33.35;16.85;;;;;;;9.55;96.86;97413.44;5025221;28;20084;-61
2022/11/08 04:05:31;;;;;;;32.38;17.42;;;;;;;9.44;96.81;97381.94;5024769;28;20108;-55
2022/11/08 04:07:59;;;;;;;28.70;16.45;;;;;;;9.54;94.60;97378.66;5025098;28;20119;-60
2022/11/08 04:10:26;;;;;;;36.65;17.15;;;;;;;9.41;91.94;97393.69;5024599;28;20060;-60
2022/11/08 04:15:38;;;;;;;30.55;16.63;;;;;;;7.58;100.00;97312.84;5024270;28;20103;-57
2022/11/08 04:23:36;;;;;;;38.35;17.58;;;;;;;8.49;98.32;97365.41;5024664;28;20140;-58
2022/11/08 04:26:05;;;;;;;27.42;15.05;;;;;;;8.81;98.18;97402.25;5023194;28;20148;-61
2022/11/08 04:28:35;;;;;;;29.60;16.60;;;;;;;8.79;98.20;97401.78;5024183;28;20172;-61
2022/11/08 04:31:05;;;;;;;28.73;17.70;;;;;;;8.25;97.05;97303.94;5024317;28;20302;-58
2022/11/08 04:33:32;;;;;;;37.60;20.50;;;;;;;9.01;94.55;97398.47;5024155;28;20544;-56
2022/11/08 04:36:01;;;;;;;34.75;19.45;;;;;;;8.60;95.67;97343.66;5024549;28;20408;-61
2022/11/08 04:38:29;;;;;;;32.78;18.08;;;;;;;8.94;96.63;97404.63;5024367;28;20511;-57
2022/11/08 04:41:01;;;;;;;35.00;18.08;;;;;;;8.56;98.34;97353.78;5024469;28;20471;-62
2022/11/08 04:43:29;;;;;;;31.73;16.20;;;;;;;9.04;98.28;97397.81;5015927;28;20142;-56
2022/11/08 04:46:04;;;;;;;35.85;19.70;;;;;;;8.76;98.26;97344.50;5026730;28;20041;-62
2022/11/08 04:48:32;;;;;;;28.52;17.23;;;;;;;8.91;97.71;97354.81;5024173;28;20096;-56
2022/11/08 04:51:04;;;;;;;33.58;18.67;;;;;;;9.23;97.91;97397.94;5024230;28;20404;-56
2022/11/08 04:53:31;;;;;;;33.38;18.65;;;;;;;9.26;98.80;97405.53;5024185;28;20080;-61
2022/11/08 04:55:59;;;;;;;33.10;21.00;;;;;;;9.38;98.58;97408.22;5022987;28;20534;-62
2022/11/08 04:58:27;;;;;;;40.67;24.13;;;;;;;9.46;98.42;97410.03;5023061;28;20469;-56
2022/11/08 05:00:57;;;;;;;40.20;22.52;;;;;;;9.50;98.32;97410.91;5024129;28;20140;-56
2022/11/08 05:03:24;;;;;;;42.45;23.33;;;;;;;9.53;98.10;97404.69;5024555;28;20053;-56
2022/11/08 05:05:51;;;;;;;45.88;25.05;;;;;;;9.67;97.68;97416.13;5026854;28;20164;-56
2022/11/08 05:08:17;;;;;;;39.08;23.25;;;;;;;9.71;97.32;97417.03;5028048;28;20156;-62
2022/11/08 05:10:44;;;;;;;45.83;26.05;;;;;;;9.70;97.31;97420.16;5026629;28;20053;-57
2022/11/08 05:13:11;;;;;;;51.13;28.45;;;;;;;9.42;96.26;97356.59;5025716;28;20144;-56
2022/11/08 05:15:38;;;;;;;38.72;19.45;;;;;;;9.77;95.53;97426.66;5027906;28;20049;-57
2022/11/08 05:18:04;;;;;;;38.65;19.20;;;;;;;9.67;95.20;97426.38;5027880;28;20053;-62
2022/11/08 05:23:25;;;;;;;30.15;19.88;;;;;;;9.31;94.74;97391.44;5027509;28;20088;-58
2022/11/08 05:25:53;;;;;;;34.88;19.90;;;;;;;9.56;95.74;97431.66;5026484;28;20053;-62
2022/11/08 05:28:20;;;;;;;39.80;19.80;;;;;;;9.66;95.26;97442.16;5027870;28;20108;-57
2022/11/08 05:30:56;;;;;;;36.03;19.08;;;;;;;9.03;97.82;97440.38;5027639;28;20049;-62
2022/11/08 05:33:23;;;;;;;35.33;17.58;;;;;;;8.64;100.00;97526.78;5027735;28;20092;-62
2022/11/08 05:35:51;;;;;;;45.10;23.73;;;;;;;8.65;100.00;97395.84;5027475;28;20050;-62
2022/11/08 05:38:18;;;;;;;45.25;25.90;;;;;;;8.98;99.62;97410.25;5027493;28;20096;-61
2022/11/08 05:40:45;;;;;;;75.70;26.63;;;;;;;9.53;97.23;97454.44;5027558;28;20045;-63
2022/11/08 05:43:12;;;;;;;53.67;26.35;;;;;;;9.53;96.04;97454.44;5026864;28;20115;-62
2022/11/08 05:45:39;;;;;;;58.80;28.88;;;;;;;9.53;95.95;97476.56;5027607;28;20077;-58
2022/11/08 05:48:05;;;;;;;57.65;25.85;;;;;;;9.31;95.52;97438.44;5027191;28;20124;-56
2022/11/08 05:50:34;;;;;;;48.75;22.73;;;;;;;9.08;98.32;97451.19;5027197;28;20163;-62
2022/11/08 05:53:02;;;;;;;44.13;22.10;;;;;;;9.53;96.73;97465.50;5027239;28;20061;-62
2022/11/08 05:55:29;;;;;;;42.97;22.17;;;;;;;9.28;97.53;97466.78;5027202;28;20089;-55
2022/11/08 05:57:55;;;;;;;38.40;19.77;;;;;;;8.87;98.30;97414.66;5027245;28;20107;-61
2022/11/08 06:00:22;;;;;;;40.38;20.17;;;;;;;9.41;97.85;97468.34;5026948;28;20967;-62
2022/11/08 06:02:49;;;;;;;45.53;19.90;;;;;;;9.80;96.68;97469.44;5025532;28;20084;-62
2022/11/08 06:05:16;;;;;;;48.58;19.42;;;;;;;9.76;93.97;97425.06;5026853;28;20132;-62
2022/11/08 06:07:42;;;;;;;38.67;18.98;;;;;;;9.89;93.28;97440.44;5027189;28;20550;-61
2022/11/08 06:10:09;;;;;;;51.33;19.25;;;;;;;10.23;93.66;97483.22;5026581;28;20599;-62
2022/11/08 06:12:37;;;;;;;43.47;18.88;;;;;;;10.36;92.92;97480.00;5026478;28;20089;-62
2022/11/08 06:15:05;;;;;;;37.22;17.85;;;;;;;9.15;96.97;97421.81;5025847;28;20060;-56
2022/11/08 06:17:32;;;;;;;37.00;19.38;;;;;;;9.54;98.82;97475.44;5027040;28;20574;-61
2022/11/08 06:19:59;;;;;;;39.42;19.45;;;;;;;9.30;100.00;97472.78;5026587;28;20126;-56
2022/11/08 06:22:30;;;;;;;37.22;19.70;;;;;;;9.45;100.00;97491.38;5027034;28;20524;-61
2022/11/08 06:24:56;;;;;;;46.90;21.45;;;;;;;9.36;99.61;97459.50;5026517;28;20123;-61
2022/11/08 06:27:23;;;;;;;48.78;19.58;;;;;;;9.37;98.85;97431.50;5026605;28;20139;-61
2022/11/08 06:29:50;;;;;;;43.78;21.75;;;;;;;9.93;97.78;97485.59;5024889;28;20049;-55
2022/11/08 06:32:16;;;;;;;47.40;20.02;;;;;;;10.21;97.19;97486.34;5026786;28;20413;-62
2022/11/08 06:34:45;;;;;;;39.13;20.00;;;;;;;10.48;94.54;97496.53;5026475;28;20139;-56
2022/11/08 06:37:12;;;;;;;36.55;18.60;;;;;;;10.32;94.25;97492.94;5026572;28;20143;-56
2022/11/08 06:39:40;;;;;;;49.33;19.55;;;;;;;10.53;94.68;97496.25;5025928;28;20050;-56
2022/11/08 06:42:08;;;;;;;39.25;19.60;;;;;;;10.83;92.79;97496.56;5026541;28;20053;-57
2022/11/08 06:44:35;;;;;;;44.70;20.85;;;;;;;10.42;90.43;97425.97;5022624;28;20142;-62
2022/11/08 06:47:02;;;;;;;38.60;19.40;;;;;;;10.98;89.23;97469.97;5024121;28;20103;-56
2022/11/08 06:49:28;;;;;;;40.75;19.88;;;;;;;11.08;87.56;97425.06;5025398;28;20495;-56
2022/11/08 06:51:55;;;;;;;44.15;22.05;;;;;;;11.55;87.68;97494.97;5025369;28;20480;-65
2022/11/08 06:54:22;;;;;;;39.55;21.13;;;;;;;11.75;86.29;97499.38;5025604;28;20072;-62
2022/11/08 06:56:54;;;;;;;31.40;19.27;;;;;;;11.80;84.95;97490.75;5025680;28;20049;-65
2022/11/08 06:59:22;;;;;;;43.70;20.20;;;;;;;11.57;86.28;97487.09;5025825;28;20144;-61
2022/11/08 07:01:48;;;;;;;35.97;20.30;;;;;;;11.70;85.97;97497.69;5008554;28;20057;-60
2022/11/08 07:04:15;;;;;;;37.83;17.92;;;;;;;11.63;84.93;97469.78;5025449;28;20547;-54
2022/11/08 07:06:42;;;;;;;37.55;19.27;;;;;;;11.80;86.18;97507.41;5025888;28;20049;-54
2022/11/08 07:09:09;;;;;;;41.20;20.15;;;;;;;12.17;86.04;97495.41;5024392;28;20140;-61
2022/11/08 07:11:35;;;;;;;39.35;19.27;;;;;;;12.48;84.32;97497.16;5024340;28;20111;-53
2022/11/08 07:14:02;;;;;;;32.88;18.20;;;;;;;12.20;84.34;97496.66;5040529;28;20077;-60
2022/11/08 07:16:29;;;;;;;39.22;18.20;;;;;;;12.37;84.64;97506.47;5025620;28;20977;-62
2022/11/08 07:18:55;;;;;;;37.00;18.38;;;;;;;12.70;82.82;97490.75;5025647;28;20128;-62
2022/11/08 07:21:22;;;;;;;34.90;18.45;;;;;;;12.69;82.84;97469.72;5023945;28;20088;-65
2022/11/08 07:23:49;;;;;;;32.83;18.85;;;;;;;12.90;82.33;97467.25;5023882;28;20065;-66
2022/11/08 07:26:16;;;;;;;35.10;18.33;;;;;;;12.95;83.07;97491.13;5024201;28;20092;-61
2022/11/08 07:28:42;;;;;;;34.88;18.40;;;;;;;13.10;82.72;97484.66;5025241;28;20409;-65
2022/11/08 07:31:10;;;;;;;38.42;20.25;;;;;;;13.46;82.14;97476.41;5023512;28;20107;-56
2022/11/08 07:33:36;;;;;;;36.47;19.75;;;;;;;13.65;81.22;97465.09;5025566;28;20152;-63
2022/11/08 07:36:03;;;;;;;38.28;20.58;;;;;;;13.75;80.61;97466.41;5025229;28;20053;-61
2022/11/08 07:38:30;;;;;;;43.03;20.95;;;;;;;13.86;80.47;97466.53;5025278;28;20089;-63
2022/11/08 07:40:58;;;;;;;40.72;21.15;;;;;;;13.94;79.06;97459.84;5025201;28;20080;-57
2022/11/08 07:43:26;;;;;;;44.88;21.15;;;;;;;14.09;79.25;97465.16;5025353;28;20041;-56
2022/11/08 07:45:58;;;;;;;34.75;19.70;;;;;;;14.32;77.63;97482.53;5025242;28;20045;-56
2022/11/08 07:48:26;;;;;;;37.80;20.25;;;;;;;14.40;76.40;97478.63;5024611;28;20084;-57
2022/11/08 07:50:53;;;;;;;43.85;22.45;;;;;;;14.06;76.32;97401.06;5024624;28;20127;-62
2022/11/08 07:53:20;;;;;;;35.72;20.58;;;;;;;13.90;78.26;97470.13;5025032;28;20148;-56
2022/11/08 07:55:47;;;;;;;34.97;19.33;;;;;;;14.20;77.20;97479.19;5024497;28;20085;-57
2022/11/08 07:58:14;;;;;;;38.63;19.77;;;;;;;14.10;76.99;97457.63;5024271;28;20556;-61
2022/11/08 08:00:43;;;;;;;40.35;22.08;;;;;;;13.60;80.07;97473.78;5024365;28;20208;-57
2022/11/08 08:03:12;;;;;;;34.08;20.42;;;;;;;13.92;78.66;97481.69;5024046;28;20132;-65
2022/11/08 08:05:43;;;;;;;37.70;20.45;;;;;;;13.96;77.89;97479.78;5023151;28;20212;-70
2022/11/08 08:08:12;;;;;;;41.03;23.25;;;;;;;13.72;77.44;97424.59;5022987;28;20061;-54
2022/11/08 08:10:39;;;;;;;43.42;21.75;;;;;;;14.08;77.43;97487.84;5024561;28;20072;-57
2022/11/08 08:13:06;;;;;;;52.33;27.35;;;;;;;14.25;76.27;97465.75;5023881;28;20049;-66
2022/11/08 08:15:33;;;;;;;42.03;21.42;;;;;;;14.38;75.66;97485.78;5024134;28;20053;-58
2022/11/08 08:18:02;;;;;;;36.50;22.17;;;;;;;14.53;75.12;97476.34;5024293;28;20607;-55
2022/11/08 08:20:29;;;;;;;38.67;21.98;;;;;;;14.52;75.58;97488.69;5024260;28;20140;-57
2022/11/08 08:22:56;;;;;;;39.95;22.85;;;;;;;14.34;73.70;97420.84;5023185;28;20073;-59
2022/11/08 08:25:24;;;;;;;42.22;24.48;;;;;;;14.84;73.18;97493.34;5022719;28;20142;-55
2022/11/08 08:27:53;;;;;;;40.88;21.83;;;;;;;15.02;72.43;97471.16;5024352;28;20559;-58
2022/11/08 08:30:21;;;;;;;39.83;22.63;;;;;;;15.11;72.32;97496.75;5024132;28;20167;-60
2022/11/08 08:32:48;;;;;;;34.63;20.67;;;;;;;15.14;72.09;97487.59;5024563;28;20127;-54
2022/11/08 08:35:35;;;;;;;37.40;22.05;;;;;;;15.14;72.17;97491.16;5024295;28;20535;-55
2022/11/08 08:38:02;;;;;;;40.33;23.83;;;;;;;14.92;72.75;97466.31;5022296;28;20120;-64
2022/11/08 08:40:28;;;;;;;39.78;23.83;;;;;;;15.22;71.99;97491.22;5023871;28;20115;-54
2022/11/08 08:42:57;;;;;;;37.05;23.30;;;;;;;15.33;71.90;97492.88;5024478;28;20041;-53
2022/11/08 08:45:25;;;;;;;40.70;23.27;;;;;;;15.48;72.18;97493.78;5024098;28;20050;-54
2022/11/08 08:47:55;;;;;;;37.60;20.45;;;;;;;15.75;70.61;97487.53;5024227;28;20045;-55
2022/11/08 08:50:24;;;;;;;35.90;21.65;;;;;;;15.72;70.81;97491.09;5024321;28;20127;-57
2022/11/08 08:52:51;;;;;;;40.20;21.92;;;;;;;15.87;69.82;97501.13;5023890;28;20057;-55
2022/11/08 08:55:17;;;;;;;37.38;21.52;;;;;;;15.68;70.33;97497.88;5024051;28;20500;-66
2022/11/08 08:57:47;;;;;;;37.88;22.83;;;;;;;15.31;71.16;97495.25;5023068;28;20080;-55
2022/11/08 09:00:15;;;;;;;40.28;20.75;;;;;;;15.21;71.64;97506.38;5023200;28;20095;-56
2022/11/08 09:03:09;;;;;;;41.35;23.25;;;;;;;15.21;72.82;97495.97;5023125;28;20064;-55
2022/11/08 09:05:39;;;;;;;39.53;20.58;;;;;;;15.56;71.41;97501.81;5024011;28;20366;-63
2022/11/08 09:08:06;;;;;;;31.73;20.20;;;;;;;15.51;70.03;97465.88;5022580;28;20120;-56
2022/11/08 09:10:33;;;;;;;44.58;24.10;;;;;;;15.08;71.42;97450.06;5023853;28;20133;-54
2022/11/08 09:13:01;;;;;;;37.63;23.20;;;;;;;15.15;70.99;97444.53;5022449;28;20053;-60
2022/11/08 09:15:28;;;;;;;43.20;21.27;;;;;;;15.18;71.20;97469.66;5023243;28;20129;-63
2022/11/08 09:17:56;;;;;;;40.40;21.42;;;;;;;14.83;73.15;97502.09;5023826;28;20144;-63
2022/11/08 09:20:23;;;;;;;42.63;23.30;;;;;;;14.56;74.63;97475.56;5022268;28;20049;-57
2022/11/08 09:22:49;;;;;;;36.42;21.92;;;;;;;14.90;73.77;97502.16;5023350;28;20057;-54
2022/11/08 09:25:17;;;;;;;35.78;20.85;;;;;;;15.08;72.29;97458.41;5023609;28;20119;-63
2022/11/08 09:27:44;;;;;;;38.95;20.25;;;;;;;15.53;71.03;97505.38;5022373;28;20145;-63
2022/11/08 09:30:11;;;;;;;32.58;21.50;;;;;;;15.19;71.40;97488.00;5021744;28;20173;-51
2022/11/08 09:32:37;;;;;;;34.00;20.05;;;;;;;15.07;72.16;97502.28;5023644;28;20508;-63
2022/11/08 09:35:24;;;;;;;34.00;21.35;;;;;;;15.25;71.84;97452.16;5023781;28;20523;-51
2022/11/08 09:37:54;;;;;;;31.45;20.23;;;;;;;15.99;69.30;97503.59;5023650;28;20159;-52
2022/11/08 09:40:26;;;;;;;39.22;22.92;;;;;;;16.36;68.63;97501.25;5023425;28;20057;-61
2022/11/08 09:43:42;;;;;;;35.22;21.92;;;;;;;16.54;66.92;97506.91;5023429;28;20476;-66
2022/11/08 09:46:10;;;;;;;37.35;21.80;;;;;;;16.26;66.59;97479.69;5023748;28;20085;-58
2022/11/08 09:48:42;;;;;;;34.83;21.88;;;;;;;16.60;66.36;97506.13;5022308;28;20144;-63
2022/11/08 09:51:14;;;;;;;40.55;23.67;;;;;;;16.77;65.69;97464.56;5026446;28;20053;-63
2022/11/08 09:54:02;;;;;;;33.00;20.95;;;;;;;16.98;64.08;97459.75;5027550;28;20136;-60
2022/11/08 09:56:31;;;;;;;35.85;21.05;;;;;;;17.44;63.54;97496.03;5025771;28;20049;-63
2022/11/08 09:59:12;;;;;;;45.30;23.92;;;;;;;17.46;63.35;97497.28;5025266;28;20045;-56
2022/11/08 10:01:39;;;;;;;36.22;22.83;;;;;;;17.40;63.17;97489.66;5027310;28;20127;-60
2022/11/08 10:04:20;;;;;;;32.63;20.45;;;;;;;17.32;63.19;97496.47;5026903;28;20060;-52
2022/11/08 10:06:59;;;;;;;32.38;19.42;;;;;;;16.79;64.48;97499.34;5027022;28;20088;-70
2022/11/08 10:09:46;;;;;;;37.45;20.80;;;;;;;16.79;64.87;97496.53;5026949;28;20087;-64
2022/11/08 10:12:39;;;;;;;38.20;21.85;;;;;;;16.34;66.57;97486.09;5026848;28;20223;-58
2022/11/08 10:15:34;;;;;;;42.58;26.10;;;;;;;16.71;65.86;97488.56;5028654;28;20092;-55
2022/11/08 10:18:18;;;;;;;39.33;22.10;;;;;;;16.91;65.17;97484.16;5046469;28;20486;-58
2022/11/08 10:20:56;;;;;;;36.53;21.35;;;;;;;17.14;64.33;97484.50;5045262;28;20079;-65
2022/11/08 10:23:51;;;;;;;33.15;21.15;;;;;;;17.16;64.01;97487.72;5045283;28;20080;-68
2022/11/08 10:26:20;;;;;;;36.30;21.00;;;;;;;17.17;63.46;97494.91;5042479;28;20174;-57
2022/11/08 10:29:01;;;;;;;37.72;23.13;;;;;;;17.06;63.91;97471.72;5046421;28;20053;-66
2022/11/08 10:31:32;;;;;;;60.00;29.63;;;;;;;17.05;63.73;97479.34;5025310;28;20065;-56
2022/11/08 10:34:02;;;;;;;68.00;35.47;;;;;;;17.32;63.64;97471.28;5025607;28;20061;-63
2022/11/08 10:36:42;;;;;;;41.20;26.40;;;;;;;17.15;63.16;97402.13;5024781;28;20111;-66
2022/11/08 10:39:12;;;;;;;35.50;22.98;;;;;;;17.64;62.58;97475.59;5025568;28;20139;-65
2022/11/08 10:41:45;;;;;;;37.30;21.70;;;;;;;17.81;62.11;97473.94;5026115;28;20099;-55
2022/11/08 10:44:19;;;;;;;36.92;22.70;;;;;;;17.99;61.43;97463.44;5025744;28;20123;-68
2022/11/08 10:47:12;;;;;;;36.22;22.30;;;;;;;17.72;60.85;97459.59;5024445;28;20053;-56
2022/11/08 10:49:42;;;;;;;35.47;23.35;;;;;;;17.40;61.66;97400.03;5025796;28;20245;-54
2022/11/08 10:52:11;;;;;;;39.58;23.05;;;;;;;17.95;61.47;97457.06;5025499;28;20092;-57
2022/11/08 10:54:44;;;;;;;36.38;23.45;;;;;;;17.86;60.70;97409.06;5026320;28;20049;-67
2022/11/08 10:57:13;;;;;;;48.53;23.45;;;;;;;17.89;60.02;97405.44;5026609;28;20119;-55
2022/11/08 10:59:40;;;;;;;37.90;23.00;;;;;;;18.15;59.66;97421.69;5026498;28;20055;-56
2022/11/08 11:02:23;;;;;;;44.13;24.90;;;;;;;18.42;59.59;97436.75;5023121;28;20500;-56
2022/11/08 11:04:51;;;;;;;37.67;24.15;;;;;;;18.65;59.10;97441.78;5026038;28;20057;-65
2022/11/08 11:07:33;;;;;;;37.10;23.60;;;;;;;17.81;57.67;97286.19;5025277;28;20085;-53
2022/11/08 11:10:22;;;;;;;34.78;21.63;;;;;;;19.11;56.41;97434.53;5025699;28;20072;-55
2022/11/08 11:12:57;;;;;;;41.22;22.77;;;;;;;19.01;56.00;97396.13;5023119;28;20081;-53
2022/11/08 11:15:30;;;;;;;36.58;24.02;;;;;;;19.20;56.99;97426.44;5025487;28;20085;-53
2022/11/08 11:17:57;;;;;;;40.35;23.98;;;;;;;19.26;56.06;97433.19;5025327;28;20080;-66
2022/11/08 11:20:23;;;;;;;30.70;20.13;;;;;;;19.40;55.12;97424.63;5025155;28;20520;-54
2022/11/08 11:22:51;;;;;;;30.60;19.90;;;;;;;19.24;53.99;97407.50;5025431;28;20049;-57
2022/11/08 11:25:21;;;;;;;28.88;19.00;;;;;;;19.28;54.90;97407.50;5025044;28;20136;-56
2022/11/08 11:27:59;;;;;;;28.98;20.20;;;;;;;19.37;54.50;97391.75;5024182;28;20049;-55
2022/11/08 11:30:31;;;;;;;32.97;20.15;;;;;;;19.58;53.86;97413.94;5025370;28;20096;-54
2022/11/08 11:33:00;;;;;;;29.15;18.73;;;;;;;19.42;53.96;97404.53;5025467;28;20141;-53
2022/11/08 11:35:39;;;;;;;35.20;20.60;;;;;;;19.19;54.92;97407.97;5024786;28;20053;-64
2022/11/08 11:38:15;;;;;;;30.13;19.92;;;;;;;18.78;55.29;97348.22;5024815;28;20504;-66
2022/11/08 11:40:45;;;;;;;32.38;18.83;;;;;;;18.88;56.13;97392.25;5024874;28;20073;-53
2022/11/08 11:43:35;;;;;;;38.92;21.33;;;;;;;18.74;56.27;97391.59;5023261;28;20052;-53
2022/11/08 11:46:34;;;;;;;52.10;27.52;;;;;;;18.43;56.93;97399.06;5022993;28;20695;-65
2022/11/08 11:49:15;;;;;;;35.95;20.83;;;;;;;18.38;57.36;97396.72;5024232;28;20455;-55
2022/11/08 11:51:42;;;;;;;30.63;19.42;;;;;;;18.34;57.55;97387.50;5025147;28;20092;-66
2022/11/08 11:54:14;;;;;;;32.08;19.75;;;;;;;18.33;58.03;97388.72;5022587;28;20053;-54